aviador You're here:

KAWO Decoded Metar

ARLINGTON MUNI in WA, USA
Report Time2018-01-23 04:56:00
UTC Time2018-01-23 05:35:18
Flight Rules vfr VFR
Wind120° at 07 kt
W.Decomp.*RWY 11: 6.9 kt HW 0.9 kt LCW
RWY 16: 3.8 kt HW 5.9 kt LCW
W.Rank120° ranks 16
Current wind is above 120° avg. (6.9)
Visibility9999 m
Phenomena:N/A
Clouds:Few 033 Hf
Expected CloudBase > 1,600 ft AGL from Temp-Dew spread
CeilingNone
Temp06°C (ISA -9)
Dew Point02°C (76% RH)
AAT1.8°C
QNH1025 hPa
Density Alt-1,224 ft
Elevation138 ft
Report Wrong Elevation
Raw Report
KAWO 230456Z AUTO 12007KT 10SM FEW033 06/02 A3027 RMK AO2 SLP257
T00560022=

Extra information for KAWO:More info

Metar Taf Metar & Taf Last 4 Metars F.Rules Stats Wind Profile Meteogram Temp Stats Airport Information Weather charts Add Link Nearby VenuesMetar ALERT Operation Metar Decoded Social comments

AIRNAV info for KAWO